sensor_id;sensor_type;location;lat;lon;timestamp;pressure;altitude;pressure_sealevel;temperature;humidity
22775;BME280;11554;51.106;3.684;2024-02-23T00:00:00;98975.28;;;3.60;100.0
22775;BME280;11554;51.106;3.684;2024-02-23T00:05:00;98983.01;;;3.60;100.0
22775;BME280;11554;51.106;3.684;2024-02-23T00:10:00;98987.83;;;3.64;100.0
22775;BME280;11554;51.106;3.684;2024-02-23T00:15:00;98996.7;;;3.66;100.0
22775;BME280;11554;51.106;3.684;2024-02-23T00:20:00;98997.83;;;3.70;100.0
22775;BME280;11554;51.106;3.684;2024-02-23T00:25:00;98992.36;;;3.85;100.0
22775;BME280;11554;51.106;3.684;2024-02-23T00:30:00;98996.42;;;3.78;100.0
22775;BME280;11554;51.106;3.684;2024-02-23T00:35:00;99002.19;;;3.88;100.0
22775;BME280;11554;51.106;3.684;2024-02-23T00:40:00;99000.78;;;3.98;100.0
22775;BME280;11554;51.106;3.684;2024-02-23T00:45:00;99011.77;;;4.01;100.0
22775;BME280;11554;51.106;3.684;2024-02-23T00:50:00;99024.08;;;4.00;100.0
22775;BME280;11554;51.106;3.684;2024-02-23T00:55:00;99021.66;;;3.93;100.0
22775;BME280;11554;51.106;3.684;2024-02-23T01:00:00;99026.86;;;3.81;100.0
22775;BME280;11554;51.106;3.684;2024-02-23T01:05:00;99035.05;;;3.82;100.0
22775;BME280;11554;51.106;3.684;2024-02-23T01:10:00;99025.67;;;3.76;100.0
22775;BME280;11554;51.106;3.684;2024-02-23T01:15:00;99025.05;;;3.66;100.0
22775;BME280;11554;51.106;3.684;2024-02-23T01:20:00;99035.55;;;3.63;100.0
22775;BME280;11554;51.106;3.684;2024-02-23T01:25:00;99032.48;;;3.66;100.0
22775;BME280;11554;51.106;3.684;2024-02-23T01:30:00;99045.84;;;3.76;100.0
22775;BME280;11554;51.106;3.684;2024-02-23T01:35:00;99055.75;;;3.82;100.0
22775;BME280;11554;51.106;3.684;2024-02-23T01:40:00;99053.33;;;3.69;100.0
22775;BME280;11554;51.106;3.684;2024-02-23T01:45:00;99056.14;;;3.64;100.0
22775;BME280;11554;51.106;3.684;2024-02-23T01:50:00;99052.37;;;3.58;100.0
22775;BME280;11554;51.106;3.684;2024-02-23T01:55:00;99062.32;;;3.57;100.0
22775;BME280;11554;51.106;3.684;2024-02-23T02:00:00;99051.31;;;3.60;100.0
22775;BME280;11554;51.106;3.684;2024-02-23T02:05:00;99056.76;;;3.63;100.0
22775;BME280;11554;51.106;3.684;2024-02-23T02:10:00;99058.64;;;3.73;100.0
22775;BME280;11554;51.106;3.684;2024-02-23T02:15:00;99055.39;;;3.74;100.0
22775;BME280;11554;51.106;3.684;2024-02-23T02:20:01;99055.24;;;3.77;100.0
22775;BME280;11554;51.106;3.684;2024-02-23T02:25:00;99051.75;;;3.77;100.0
22775;BME280;11554;51.106;3.684;2024-02-23T02:30:00;99058.89;;;3.84;100.0
22775;BME280;11554;51.106;3.684;2024-02-23T02:35:00;99067.36;;;3.93;100.0
22775;BME280;11554;51.106;3.684;2024-02-23T02:40:00;99070.75;;;3.93;100.0
22775;BME280;11554;51.106;3.684;2024-02-23T02:45:00;99074.45;;;3.87;100.0
22775;BME280;11554;51.106;3.684;2024-02-23T02:50:00;99074.37;;;3.88;100.0
22775;BME280;11554;51.106;3.684;2024-02-23T02:55:00;99067.55;;;3.89;100.0
22775;BME280;11554;51.106;3.684;2024-02-23T03:00:00;99067.16;;;3.86;100.0
22775;BME280;11554;51.106;3.684;2024-02-23T03:05:00;99061.37999999999;;;3.91;100.0
22775;BME280;11554;51.106;3.684;2024-02-23T03:10:00;99051.45;;;3.95;100.0
22775;BME280;11554;51.106;3.684;2024-02-23T03:15:00;99046.83;;;3.95;100.0
22775;BME280;11554;51.106;3.684;2024-02-23T03:20:00;99050.44;;;3.98;100.0
22775;BME280;11554;51.106;3.684;2024-02-23T03:25:00;99053.91;;;3.99;100.0
22775;BME280;11554;51.106;3.684;2024-02-23T03:30:00;99058.26;;;4.02;100.0
22775;BME280;11554;51.106;3.684;2024-02-23T03:35:00;99046.75;;;4.05;100.0
22775;BME280;11554;51.106;3.684;2024-02-23T03:40:00;99037.15999999999;;;4.03;100.0
22775;BME280;11554;51.106;3.684;2024-02-23T03:45:00;99039.23;;;4.05;100.0
22775;BME280;11554;51.106;3.684;2024-02-23T03:50:00;99040.99;;;4.06;100.0
22775;BME280;11554;51.106;3.684;2024-02-23T03:55:00;99030.35;;;4.05;100.0
22775;BME280;11554;51.106;3.684;2024-02-23T04:00:00;99028.43000000001;;;4.03;100.0
22775;BME280;11554;51.106;3.684;2024-02-23T04:05:00;99029.39;;;4.04;100.0
22775;BME280;11554;51.106;3.684;2024-02-23T04:10:00;99019.25;;;4.08;100.0
22775;BME280;11554;51.106;3.684;2024-02-23T04:15:00;99002.36;;;4.02;100.0
22775;BME280;11554;51.106;3.684;2024-02-23T04:20:00;98992.81;;;3.96;100.0
22775;BME280;11554;51.106;3.684;2024-02-23T04:25:00;98987.92;;;3.92;100.0
22775;BME280;11554;51.106;3.684;2024-02-23T04:30:00;98983.67;;;3.98;100.0
22775;BME280;11554;51.106;3.684;2024-02-23T04:35:00;98989.78;;;4.00;100.0
22775;BME280;11554;51.106;3.684;2024-02-23T04:40:00;98981.62;;;3.94;100.0
22775;BME280;11554;51.106;3.684;2024-02-23T04:45:00;98988.2;;;3.86;100.0
22775;BME280;11554;51.106;3.684;2024-02-23T04:50:00;98991.64;;;3.81;100.0
22775;BME280;11554;51.106;3.684;2024-02-23T04:55:00;98979.81;;;3.77;100.0
22775;BME280;11554;51.106;3.684;2024-02-23T05:00:00;98967.92;;;3.73;100.0
22775;BME280;11554;51.106;3.684;2024-02-23T05:05:00;98974.13;;;3.69;100.0
22775;BME280;11554;51.106;3.684;2024-02-23T05:10:00;98969.65;;;3.67;100.0
22775;BME280;11554;51.106;3.684;2024-02-23T05:15:00;98970.31;;;3.68;100.0
22775;BME280;11554;51.106;3.684;2024-02-23T05:20:00;98974.78;;;3.71;100.0
22775;BME280;11554;51.106;3.684;2024-02-23T05:25:00;98983.24;;;3.74;100.0
22775;BME280;11554;51.106;3.684;2024-02-23T05:30:00;98970.33;;;3.76;100.0
22775;BME280;11554;51.106;3.684;2024-02-23T05:35:00;98967.95;;;3.77;100.0
22775;BME280;11554;51.106;3.684;2024-02-23T05:40:00;98964.29000000001;;;3.78;100.0
22775;BME280;11554;51.106;3.684;2024-02-23T05:45:00;98960.49;;;3.80;100.0
22775;BME280;11554;51.106;3.684;2024-02-23T05:50:00;98946.73;;;3.82;100.0
22775;BME280;11554;51.106;3.684;2024-02-23T05:55:00;98933.95000000001;;;3.88;100.0
22775;BME280;11554;51.106;3.684;2024-02-23T06:00:00;98925.37;;;3.90;100.0
22775;BME280;11554;51.106;3.684;2024-02-23T06:05:00;98914.06;;;3.91;100.0
22775;BME280;11554;51.106;3.684;2024-02-23T06:10:00;98919.53;;;3.91;100.0
22775;BME280;11554;51.106;3.684;2024-02-23T06:15:00;98921.91;;;3.97;100.0
22775;BME280;11554;51.106;3.684;2024-02-23T06:20:00;98921.74;;;4.03;100.0
22775;BME280;11554;51.106;3.684;2024-02-23T06:25:00;98921.57999999999;;;4.07;100.0
22775;BME280;11554;51.106;3.684;2024-02-23T06:30:00;98921.46;;;4.11;100.0
22775;BME280;11554;51.106;3.684;2024-02-23T06:35:00;98940.06000000001;;;4.13;100.0
22775;BME280;11554;51.106;3.684;2024-02-23T06:40:00;98927.81999999999;;;4.19;100.0
22775;BME280;11554;51.106;3.684;2024-02-23T06:45:00;98927.73999999999;;;4.24;100.0
22775;BME280;11554;51.106;3.684;2024-02-23T06:50:00;98922.81;;;4.25;100.0
22775;BME280;11554;51.106;3.684;2024-02-23T06:55:00;98912.51999999999;;;4.28;100.0
22775;BME280;11554;51.106;3.684;2024-02-23T07:00:00;98928.08;;;4.33;100.0
22775;BME280;11554;51.106;3.684;2024-02-23T07:05:00;98936.51;;;4.40;100.0
22775;BME280;11554;51.106;3.684;2024-02-23T07:10:00;98925.31;;;4.45;100.0
22775;BME280;11554;51.106;3.684;2024-02-23T07:15:00;98920.43;;;4.49;100.0
22775;BME280;11554;51.106;3.684;2024-02-23T07:20:00;98928.77;;;4.55;100.0
22775;BME280;11554;51.106;3.684;2024-02-23T07:25:00;98932.0;;;4.55;100.0
22775;BME280;11554;51.106;3.684;2024-02-23T07:30:00;98924.23999999999;;;4.55;100.0
22775;BME280;11554;51.106;3.684;2024-02-23T07:35:00;98933.84;;;4.49;100.0
22775;BME280;11554;51.106;3.684;2024-02-23T07:40:00;98930.76999999999;;;4.47;100.0
22775;BME280;11554;51.106;3.684;2024-02-23T07:45:00;98941.04999999999;;;4.49;100.0
22775;BME280;11554;51.106;3.684;2024-02-23T07:50:00;98944.53;;;4.53;100.0
22775;BME280;11554;51.106;3.684;2024-02-23T07:55:00;98940.19;;;4.60;100.0
22775;BME280;11554;51.106;3.684;2024-02-23T08:00:00;98942.38;;;4.66;100.0
22775;BME280;11554;51.106;3.684;2024-02-23T08:05:00;98941.8;;;4.72;100.0
22775;BME280;11554;51.106;3.684;2024-02-23T08:10:00;98942.74;;;4.80;100.0
22775;BME280;11554;51.106;3.684;2024-02-23T08:15:00;98949.33;;;4.83;100.0
22775;BME280;11554;51.106;3.684;2024-02-23T08:20:00;98958.84;;;4.92;100.0
22775;BME280;11554;51.106;3.684;2024-02-23T08:25:00;98965.41;;;5.20;100.0
22775;BME280;11554;51.106;3.684;2024-02-23T08:30:00;98959.98;;;5.35;100.0
22775;BME280;11554;51.106;3.684;2024-02-23T08:35:00;98948.73999999999;;;5.52;100.0
22775;BME280;11554;51.106;3.684;2024-02-23T08:40:00;98952.73;;;5.50;100.0
22775;BME280;11554;51.106;3.684;2024-02-23T08:45:00;98941.2;;;5.42;100.0
22775;BME280;11554;51.106;3.684;2024-02-23T08:50:00;98957.62;;;5.41;100.0
22775;BME280;11554;51.106;3.684;2024-02-23T08:55:00;98970.79;;;5.49;100.0
22775;BME280;11554;51.106;3.684;2024-02-23T09:00:00;98965.0;;;5.51;100.0
22775;BME280;11554;51.106;3.684;2024-02-23T09:05:00;98976.12000000001;;;5.50;100.0
22775;BME280;11554;51.106;3.684;2024-02-23T09:10:00;98981.26999999999;;;5.52;100.0
22775;BME280;11554;51.106;3.684;2024-02-23T09:15:00;98990.26;;;5.58;100.0
22775;BME280;11554;51.106;3.684;2024-02-23T09:20:00;98970.76;;;5.70;100.0
22775;BME280;11554;51.106;3.684;2024-02-23T09:25:00;98979.24;;;5.87;100.0
22775;BME280;11554;51.106;3.684;2024-02-23T09:30:00;98985.0;;;5.94;100.0
22775;BME280;11554;51.106;3.684;2024-02-23T09:35:00;98987.40000000001;;;6.03;100.0
22775;BME280;11554;51.106;3.684;2024-02-23T09:40:00;98986.51999999999;;;6.16;100.0
22775;BME280;11554;51.106;3.684;2024-02-23T09:45:00;98998.32;;;6.14;100.0
22775;BME280;11554;51.106;3.684;2024-02-23T09:50:01;99007.62;;;6.11;100.0
22775;BME280;11554;51.106;3.684;2024-02-23T09:55:00;99009.69;;;6.27;100.0
22775;BME280;11554;51.106;3.684;2024-02-23T10:00:00;99013.61;;;6.29;100.0
22775;BME280;11554;51.106;3.684;2024-02-23T10:05:00;99025.64;;;6.44;100.0
22775;BME280;11554;51.106;3.684;2024-02-23T10:10:00;99029.17;;;6.52;100.0
22775;BME280;11554;51.106;3.684;2024-02-23T10:15:00;99033.62;;;6.61;100.0
22775;BME280;11554;51.106;3.684;2024-02-23T10:20:00;99038.53;;;6.70;100.0
22775;BME280;11554;51.106;3.684;2024-02-23T10:25:00;99043.62;;;6.93;100.0
22775;BME280;11554;51.106;3.684;2024-02-23T10:30:00;99054.44;;;7.23;100.0
22775;BME280;11554;51.106;3.684;2024-02-23T10:35:00;99066.58;;;7.28;100.0
22775;BME280;11554;51.106;3.684;2024-02-23T10:40:00;99058.42;;;7.46;100.0
22775;BME280;11554;51.106;3.684;2024-02-23T10:45:00;99075.14;;;7.38;100.0
22775;BME280;11554;51.106;3.684;2024-02-23T10:50:00;99082.42;;;7.27;100.0
22775;BME280;11554;51.106;3.684;2024-02-23T10:55:00;99084.56999999999;;;7.18;100.0
22775;BME280;11554;51.106;3.684;2024-02-23T11:00:00;99093.34;;;7.13;100.0
22775;BME280;11554;51.106;3.684;2024-02-23T11:05:00;99093.1;;;6.97;100.0
22775;BME280;11554;51.106;3.684;2024-02-23T11:10:00;99083.17;;;7.06;100.0
22775;BME280;11554;51.106;3.684;2024-02-23T11:15:00;99090.59;;;7.05;100.0
22775;BME280;11554;51.106;3.684;2024-02-23T11:20:02;99092.47;;;7.08;100.0
22775;BME280;11554;51.106;3.684;2024-02-23T11:25:00;99099.06;;;7.24;100.0
22775;BME280;11554;51.106;3.684;2024-02-23T11:30:01;99096.44;;;7.39;100.0
22775;BME280;11554;51.106;3.684;2024-02-23T11:35:01;99090.49;;;7.63;100.0
22775;BME280;11554;51.106;3.684;2024-02-23T11:40:00;99101.22;;;7.91;100.0
22775;BME280;11554;51.106;3.684;2024-02-23T11:45:00;99091.93000000001;;;7.78;100.0
22775;BME280;11554;51.106;3.684;2024-02-23T11:50:00;99104.94;;;7.85;100.0
22775;BME280;11554;51.106;3.684;2024-02-23T11:55:00;99111.51999999999;;;7.86;100.0
22775;BME280;11554;51.106;3.684;2024-02-23T12:00:00;99114.67;;;8.14;100.0
22775;BME280;11554;51.106;3.684;2024-02-23T12:05:00;99104.58;;;8.27;100.0
22775;BME280;11554;51.106;3.684;2024-02-23T12:10:00;99099.26000000001;;;8.42;100.0
22775;BME280;11554;51.106;3.684;2024-02-23T12:15:00;99099.65;;;8.29;100.0
22775;BME280;11554;51.106;3.684;2024-02-23T12:20:00;99099.32;;;8.30;100.0
22775;BME280;11554;51.106;3.684;2024-02-23T12:25:00;99092.88;;;8.35;100.0
22775;BME280;11554;51.106;3.684;2024-02-23T12:30:00;99088.75;;;8.36;100.0
22775;BME280;11554;51.106;3.684;2024-02-23T12:35:00;99077.28;;;8.70;100.0
22775;BME280;11554;51.106;3.684;2024-02-23T12:40:00;99067.53;;;9.32;100.0
22775;BME280;11554;51.106;3.684;2024-02-23T12:45:00;99064.95;;;10.02;100.0
22775;BME280;11554;51.106;3.684;2024-02-23T12:50:00;99054.66;;;10.51;100.0
22775;BME280;11554;51.106;3.684;2024-02-23T12:55:00;99049.71;;;10.32;100.0
22775;BME280;11554;51.106;3.684;2024-02-23T13:00:00;99050.87;;;10.23;100.0
22775;BME280;11554;51.106;3.684;2024-02-23T13:05:00;99052.19;;;9.91;100.0
22775;BME280;11554;51.106;3.684;2024-02-23T13:10:00;99060.33;;;10.14;100.0
22775;BME280;11554;51.106;3.684;2024-02-23T13:15:00;99047.15;;;10.48;100.0
22775;BME280;11554;51.106;3.684;2024-02-23T13:20:00;99045.37;;;10.43;100.0
22775;BME280;11554;51.106;3.684;2024-02-23T13:25:00;99043.95;;;10.60;100.0
22775;BME280;11554;51.106;3.684;2024-02-23T13:30:00;99031.45;;;10.49;100.0
22775;BME280;11554;51.106;3.684;2024-02-23T13:35:00;99041.02;;;10.43;100.0
22775;BME280;11554;51.106;3.684;2024-02-23T13:40:00;99037.92;;;10.15;100.0
22775;BME280;11554;51.106;3.684;2024-02-23T13:45:00;99035.56999999999;;;10.55;100.0
22775;BME280;11554;51.106;3.684;2024-02-23T13:50:00;99029.5;;;10.89;100.0
22775;BME280;11554;51.106;3.684;2024-02-23T13:55:00;99021.02;;;11.29;100.0
22775;BME280;11554;51.106;3.684;2024-02-23T14:00:00;99024.98000000001;;;11.08;100.0
22775;BME280;11554;51.106;3.684;2024-02-23T14:05:00;99021.55;;;11.00;100.0
22775;BME280;11554;51.106;3.684;2024-02-23T14:10:00;99016.58;;;11.10;100.0
22775;BME280;11554;51.106;3.684;2024-02-23T14:15:00;99018.19;;;11.04;100.0
22775;BME280;11554;51.106;3.684;2024-02-23T14:20:00;99030.19;;;10.82;100.0
22775;BME280;11554;51.106;3.684;2024-02-23T14:25:00;99026.36;;;10.34;100.0
22775;BME280;11554;51.106;3.684;2024-02-23T14:30:00;99038.06;;;10.02;100.0
22775;BME280;11554;51.106;3.684;2024-02-23T14:35:02;99037.97;;;9.56;100.0
22775;BME280;11554;51.106;3.684;2024-02-23T14:40:00;99055.44;;;9.19;100.0
22775;BME280;11554;51.106;3.684;2024-02-23T14:45:00;99047.19;;;8.80;100.0
22775;BME280;11554;51.106;3.684;2024-02-23T14:50:00;99061.33;;;8.62;100.0
22775;BME280;11554;51.106;3.684;2024-02-23T14:55:00;99047.18000000001;;;9.20;100.0
22775;BME280;11554;51.106;3.684;2024-02-23T15:00:00;99046.52;;;9.66;100.0
22775;BME280;11554;51.106;3.684;2024-02-23T15:05:00;99038.5;;;9.78;100.0
22775;BME280;11554;51.106;3.684;2024-02-23T15:10:00;99036.51999999999;;;9.69;100.0
22775;BME280;11554;51.106;3.684;2024-02-23T15:15:00;99041.13;;;9.52;100.0
22775;BME280;11554;51.106;3.684;2024-02-23T15:20:00;99041.72;;;9.59;100.0
22775;BME280;11554;51.106;3.684;2024-02-23T15:25:00;99044.47;;;9.53;100.0
22775;BME280;11554;51.106;3.684;2024-02-23T15:30:00;99041.16;;;9.45;100.0
22775;BME280;11554;51.106;3.684;2024-02-23T15:35:00;99027.25;;;9.33;100.0
22775;BME280;11554;51.106;3.684;2024-02-23T15:40:00;99033.09000000001;;;9.09;100.0
22775;BME280;11554;51.106;3.684;2024-02-23T15:45:00;99037.69;;;9.11;100.0
22775;BME280;11554;51.106;3.684;2024-02-23T15:50:00;99036.28;;;8.84;100.0
22775;BME280;11554;51.106;3.684;2024-02-23T15:55:00;99032.42;;;8.70;100.0
22775;BME280;11554;51.106;3.684;2024-02-23T16:00:00;99034.77;;;8.55;100.0
22775;BME280;11554;51.106;3.684;2024-02-23T16:05:00;99037.06;;;8.13;100.0
22775;BME280;11554;51.106;3.684;2024-02-23T16:10:00;99042.04;;;7.92;100.0
22775;BME280;11554;51.106;3.684;2024-02-23T16:15:00;99047.09;;;7.68;100.0
22775;BME280;11554;51.106;3.684;2024-02-23T16:20:00;99053.61;;;7.56;100.0
22775;BME280;11554;51.106;3.684;2024-02-23T16:25:00;99058.17;;;7.49;100.0
22775;BME280;11554;51.106;3.684;2024-02-23T16:30:00;99058.64;;;7.46;100.0
22775;BME280;11554;51.106;3.684;2024-02-23T16:35:00;99060.5;;;7.40;100.0
22775;BME280;11554;51.106;3.684;2024-02-23T16:40:00;99062.54000000001;;;7.34;100.0
22775;BME280;11554;51.106;3.684;2024-02-23T16:45:00;99113.39;;;7.30;100.0
22775;BME280;11554;51.106;3.684;2024-02-23T16:50:00;99123.63;;;6.73;100.0
22775;BME280;11554;51.106;3.684;2024-02-23T16:55:00;99120.0;;;6.17;100.0
22775;BME280;11554;51.106;3.684;2024-02-23T17:00:00;99134.34;;;6.02;100.0
22775;BME280;11554;51.106;3.684;2024-02-23T17:05:00;99127.62;;;5.87;100.0
22775;BME280;11554;51.106;3.684;2024-02-23T17:10:00;99127.36;;;5.72;100.0
22775;BME280;11554;51.106;3.684;2024-02-23T17:15:00;99128.52;;;5.64;100.0
22775;BME280;11554;51.106;3.684;2024-02-23T17:20:00;99138.21;;;5.53;100.0
22775;BME280;11554;51.106;3.684;2024-02-23T17:25:00;99144.74;;;5.41;100.0
22775;BME280;11554;51.106;3.684;2024-02-23T17:30:00;99149.5;;;5.30;100.0
22775;BME280;11554;51.106;3.684;2024-02-23T17:35:00;99192.01000000001;;;5.29;100.0
22775;BME280;11554;51.106;3.684;2024-02-23T17:40:00;99177.31;;;5.26;100.0
22775;BME280;11554;51.106;3.684;2024-02-23T17:45:00;99182.03;;;5.22;100.0
22775;BME280;11554;51.106;3.684;2024-02-23T17:50:00;99193.14;;;5.19;100.0
22775;BME280;11554;51.106;3.684;2024-02-23T17:55:00;99192.5;;;5.15;100.0
22775;BME280;11554;51.106;3.684;2024-02-23T18:00:00;99190.75;;;5.11;100.0
22775;BME280;11554;51.106;3.684;2024-02-23T18:05:00;99181.5;;;5.04;100.0
22775;BME280;11554;51.106;3.684;2024-02-23T18:10:00;99198.43;;;5.04;100.0
22775;BME280;11554;51.106;3.684;2024-02-23T18:15:00;99205.47;;;5.05;100.0
22775;BME280;11554;51.106;3.684;2024-02-23T18:20:00;99216.58;;;5.02;100.0
22775;BME280;11554;51.106;3.684;2024-02-23T18:25:00;99209.95;;;4.99;100.0
22775;BME280;11554;51.106;3.684;2024-02-23T18:30:00;99203.99;;;4.92;100.0
22775;BME280;11554;51.106;3.684;2024-02-23T18:35:00;99204.08;;;4.88;100.0
22775;BME280;11554;51.106;3.684;2024-02-23T18:40:00;99209.61;;;4.85;100.0
22775;BME280;11554;51.106;3.684;2024-02-23T18:45:00;99214.38;;;4.84;100.0
22775;BME280;11554;51.106;3.684;2024-02-23T18:50:00;99193.06;;;4.83;100.0
22775;BME280;11554;51.106;3.684;2024-02-23T18:55:00;99195.9;;;4.81;100.0
22775;BME280;11554;51.106;3.684;2024-02-23T19:00:00;99190.26;;;4.78;100.0
22775;BME280;11554;51.106;3.684;2024-02-23T19:05:00;99193.06;;;4.73;100.0
22775;BME280;11554;51.106;3.684;2024-02-23T19:10:00;99197.34;;;4.63;100.0
22775;BME280;11554;51.106;3.684;2024-02-23T19:15:00;99206.83;;;4.53;100.0
22775;BME280;11554;51.106;3.684;2024-02-23T19:20:00;99206.41;;;4.40;100.0
22775;BME280;11554;51.106;3.684;2024-02-23T19:25:00;99206.53;;;4.27;100.0
22775;BME280;11554;51.106;3.684;2024-02-23T19:30:00;99213.06;;;4.20;100.0
22775;BME280;11554;51.106;3.684;2024-02-23T19:35:00;99229.49;;;4.12;100.0
22775;BME280;11554;51.106;3.684;2024-02-23T19:40:00;99235.38;;;4.08;100.0
22775;BME280;11554;51.106;3.684;2024-02-23T19:45:00;99242.25;;;4.06;100.0
22775;BME280;11554;51.106;3.684;2024-02-23T19:50:00;99253.59;;;4.03;100.0
22775;BME280;11554;51.106;3.684;2024-02-23T19:55:00;99261.56;;;3.98;100.0
22775;BME280;11554;51.106;3.684;2024-02-23T20:00:00;99265.26;;;3.92;100.0
22775;BME280;11554;51.106;3.684;2024-02-23T20:05:00;99266.74;;;3.87;100.0
22775;BME280;11554;51.106;3.684;2024-02-23T20:10:00;99271.68000000001;;;3.84;100.0
22775;BME280;11554;51.106;3.684;2024-02-23T20:15:00;99274.63;;;3.76;100.0
22775;BME280;11554;51.106;3.684;2024-02-23T20:20:00;99275.95999999999;;;3.67;100.0
22775;BME280;11554;51.106;3.684;2024-02-23T20:25:00;99281.45;;;3.59;100.0
22775;BME280;11554;51.106;3.684;2024-02-23T20:30:00;99285.11;;;3.50;100.0
22775;BME280;11554;51.106;3.684;2024-02-23T20:35:00;99288.51;;;3.44;100.0
22775;BME280;11554;51.106;3.684;2024-02-23T20:45:00;99294.61;;;3.35;100.0
22775;BME280;11554;51.106;3.684;2024-02-23T20:50:00;99293.86;;;3.32;100.0
22775;BME280;11554;51.106;3.684;2024-02-23T20:55:00;99291.79000000001;;;3.28;100.0
22775;BME280;11554;51.106;3.684;2024-02-23T21:00:00;99288.19;;;3.17;100.0
22775;BME280;11554;51.106;3.684;2024-02-23T21:05:00;99287.61;;;3.11;100.0
22775;BME280;11554;51.106;3.684;2024-02-23T21:10:00;99294.64;;;3.05;100.0
22775;BME280;11554;51.106;3.684;2024-02-23T21:15:00;99299.39;;;2.99;100.0
22775;BME280;11554;51.106;3.684;2024-02-23T21:20:00;99299.22;;;2.99;100.0
22775;BME280;11554;51.106;3.684;2024-02-23T21:25:00;99298.20999999999;;;2.95;100.0
22775;BME280;11554;51.106;3.684;2024-02-23T21:30:00;99297.73;;;2.96;100.0
22775;BME280;11554;51.106;3.684;2024-02-23T21:35:00;99298.35;;;3.00;100.0
22775;BME280;11554;51.106;3.684;2024-02-23T21:40:00;99301.65;;;2.96;100.0
22775;BME280;11554;51.106;3.684;2024-02-23T21:45:00;99308.03;;;2.99;100.0
22775;BME280;11554;51.106;3.684;2024-02-23T21:50:00;99309.31;;;3.00;100.0
22775;BME280;11554;51.106;3.684;2024-02-23T21:55:00;99306.41;;;3.07;100.0
22775;BME280;11554;51.106;3.684;2024-02-23T22:00:00;99311.08;;;3.08;100.0
22775;BME280;11554;51.106;3.684;2024-02-23T22:05:00;99311.01999999999;;;3.07;100.0
22775;BME280;11554;51.106;3.684;2024-02-23T22:10:00;99316.74;;;3.05;100.0
22775;BME280;11554;51.106;3.684;2024-02-23T22:15:00;99323.58;;;3.04;100.0
22775;BME280;11554;51.106;3.684;2024-02-23T22:20:00;99321.72;;;2.97;100.0
22775;BME280;11554;51.106;3.684;2024-02-23T22:25:00;99320.14;;;2.83;100.0
22775;BME280;11554;51.106;3.684;2024-02-23T22:30:00;99327.94;;;2.83;100.0
22775;BME280;11554;51.106;3.684;2024-02-23T22:35:00;99332.92;;;2.81;100.0
22775;BME280;11554;51.106;3.684;2024-02-23T22:40:00;99343.97;;;2.83;100.0
22775;BME280;11554;51.106;3.684;2024-02-23T22:45:00;99343.81;;;2.79;100.0
22775;BME280;11554;51.106;3.684;2024-02-23T22:50:00;99342.94;;;2.74;100.0
22775;BME280;11554;51.106;3.684;2024-02-23T22:55:00;99339.04;;;2.72;100.0
22775;BME280;11554;51.106;3.684;2024-02-23T23:00:00;99341.56;;;2.69;100.0
22775;BME280;11554;51.106;3.684;2024-02-23T23:05:00;99340.75;;;2.71;100.0
22775;BME280;11554;51.106;3.684;2024-02-23T23:10:00;99342.3;;;2.73;100.0
22775;BME280;11554;51.106;3.684;2024-02-23T23:15:00;99339.03;;;2.68;100.0
22775;BME280;11554;51.106;3.684;2024-02-23T23:20:00;99339.92;;;2.61;100.0
22775;BME280;11554;51.106;3.684;2024-02-23T23:25:00;99340.08;;;2.70;100.0
22775;BME280;11554;51.106;3.684;2024-02-23T23:30:00;99340.54;;;2.59;100.0
22775;BME280;11554;51.106;3.684;2024-02-23T23:35:00;99339.34000000001;;;2.60;100.0
22775;BME280;11554;51.106;3.684;2024-02-23T23:40:00;99335.08;;;2.55;100.0
22775;BME280;11554;51.106;3.684;2024-02-23T23:45:00;99336.25;;;2.47;100.0
22775;BME280;11554;51.106;3.684;2024-02-23T23:50:00;99335.86;;;2.41;100.0
22775;BME280;11554;51.106;3.684;2024-02-23T23:55:00;99345.7;;;2.31;100.0
